Terminal Aerodrome Forecast
Issued by NWS

Home | Current Version | Previous Version | Text Only | Print | Product List | Glossary On
Versions: 1 2 3 4 5 6 7 8 9 10 11 12 13
000
FTUS42 KGSP 230537
TAFHKY
TAF
KHKY 230537Z 2306/2406 VRB03KT P6SM SKC
     FM231600 22005KT P6SM SCT045
     FM232000 21008KT P6SM BKN050 PROB30 2320/2402 4SM -TSRA
      OVC025CB
     FM240200 24004KT P6SM VCSH BKN050=

USA.gov is the U.S. government's official web portal to all federal, state and local government web resources and services.